sensor_id;sensor_type;location;lat;lon;timestamp;P1;durP1;ratioP1;P2;durP2;ratioP2
69334;SDS011;56477;52.742;15.242;2023-05-09T00:00:45;10.25;;;5.00;;
69334;SDS011;56477;52.742;15.242;2023-05-09T00:03:13;11.15;;;5.00;;
69334;SDS011;56477;52.742;15.242;2023-05-09T00:05:39;8.37;;;5.03;;
69334;SDS011;56477;52.742;15.242;2023-05-09T00:08:06;9.80;;;4.90;;
69334;SDS011;56477;52.742;15.242;2023-05-09T00:10:32;10.63;;;5.35;;
69334;SDS011;56477;52.742;15.242;2023-05-09T00:12:58;9.55;;;4.75;;
69334;SDS011;56477;52.742;15.242;2023-05-09T00:15:25;10.52;;;5.38;;
69334;SDS011;56477;52.742;15.242;2023-05-09T00:17:51;9.23;;;5.10;;
69334;SDS011;56477;52.742;15.242;2023-05-09T00:20:17;11.32;;;5.40;;
69334;SDS011;56477;52.742;15.242;2023-05-09T00:22:43;8.23;;;5.03;;
69334;SDS011;56477;52.742;15.242;2023-05-09T00:25:10;8.55;;;4.47;;
69334;SDS011;56477;52.742;15.242;2023-05-09T00:27:36;12.63;;;5.47;;
69334;SDS011;56477;52.742;15.242;2023-05-09T00:30:03;10.03;;;5.27;;
69334;SDS011;56477;52.742;15.242;2023-05-09T00:32:31;10.18;;;4.95;;
69334;SDS011;56477;52.742;15.242;2023-05-09T00:34:57;8.38;;;4.60;;
69334;SDS011;56477;52.742;15.242;2023-05-09T00:37:23;10.97;;;5.40;;
69334;SDS011;56477;52.742;15.242;2023-05-09T00:39:49;9.53;;;4.87;;
69334;SDS011;56477;52.742;15.242;2023-05-09T00:42:15;8.43;;;3.80;;
69334;SDS011;56477;52.742;15.242;2023-05-09T00:44:41;10.68;;;4.80;;
69334;SDS011;56477;52.742;15.242;2023-05-09T00:47:07;8.50;;;4.70;;
69334;SDS011;56477;52.742;15.242;2023-05-09T00:49:33;10.80;;;4.93;;
69334;SDS011;56477;52.742;15.242;2023-05-09T00:51:59;11.35;;;4.90;;
69334;SDS011;56477;52.742;15.242;2023-05-09T00:54:26;8.63;;;4.00;;
69334;SDS011;56477;52.742;15.242;2023-05-09T00:56:52;11.10;;;4.60;;
69334;SDS011;56477;52.742;15.242;2023-05-09T00:59:18;9.48;;;4.60;;
69334;SDS011;56477;52.742;15.242;2023-05-09T01:01:45;7.78;;;4.10;;
69334;SDS011;56477;52.742;15.242;2023-05-09T01:04:11;8.50;;;4.70;;
69334;SDS011;56477;52.742;15.242;2023-05-09T01:07:21;8.38;;;4.32;;
69334;SDS011;56477;52.742;15.242;2023-05-09T01:12:05;10.05;;;4.57;;
69334;SDS011;56477;52.742;15.242;2023-05-09T01:22:38;11.52;;;4.38;;
69334;SDS011;56477;52.742;15.242;2023-05-09T01:25:19;12.18;;;4.88;;
69334;SDS011;56477;52.742;15.242;2023-05-09T01:27:57;10.73;;;4.95;;
69334;SDS011;56477;52.742;15.242;2023-05-09T01:30:24;9.82;;;5.00;;
69334;SDS011;56477;52.742;15.242;2023-05-09T01:32:53;9.00;;;4.70;;
69334;SDS011;56477;52.742;15.242;2023-05-09T01:35:24;11.15;;;4.78;;
69334;SDS011;56477;52.742;15.242;2023-05-09T01:37:51;10.60;;;4.57;;
69334;SDS011;56477;52.742;15.242;2023-05-09T01:40:19;9.93;;;4.78;;
69334;SDS011;56477;52.742;15.242;2023-05-09T01:42:48;11.25;;;4.72;;
69334;SDS011;56477;52.742;15.242;2023-05-09T01:45:24;9.10;;;4.50;;
69334;SDS011;56477;52.742;15.242;2023-05-09T01:47:51;8.80;;;4.90;;
69334;SDS011;56477;52.742;15.242;2023-05-09T01:50:18;9.70;;;4.63;;
69334;SDS011;56477;52.742;15.242;2023-05-09T01:52:46;10.20;;;4.82;;
69334;SDS011;56477;52.742;15.242;2023-05-09T01:55:16;10.18;;;5.25;;
69334;SDS011;56477;52.742;15.242;2023-05-09T01:57:45;9.50;;;4.93;;
69334;SDS011;56477;52.742;15.242;2023-05-09T02:00:12;9.55;;;4.97;;
69334;SDS011;56477;52.742;15.242;2023-05-09T02:02:39;9.98;;;5.20;;
69334;SDS011;56477;52.742;15.242;2023-05-09T02:05:07;10.82;;;4.65;;
69334;SDS011;56477;52.742;15.242;2023-05-09T02:07:34;11.25;;;5.05;;
69334;SDS011;56477;52.742;15.242;2023-05-09T02:10:01;10.23;;;5.10;;
69334;SDS011;56477;52.742;15.242;2023-05-09T02:12:29;13.65;;;5.22;;
69334;SDS011;56477;52.742;15.242;2023-05-09T02:14:55;8.55;;;4.28;;
69334;SDS011;56477;52.742;15.242;2023-05-09T02:17:21;9.45;;;4.80;;
69334;SDS011;56477;52.742;15.242;2023-05-09T02:19:47;10.10;;;4.33;;
69334;SDS011;56477;52.742;15.242;2023-05-09T02:22:13;10.45;;;4.88;;
69334;SDS011;56477;52.742;15.242;2023-05-09T02:24:41;11.82;;;5.20;;
69334;SDS011;56477;52.742;15.242;2023-05-09T02:27:09;10.32;;;5.20;;
69334;SDS011;56477;52.742;15.242;2023-05-09T02:29:38;10.03;;;4.83;;
69334;SDS011;56477;52.742;15.242;2023-05-09T02:32:22;10.15;;;5.05;;
69334;SDS011;56477;52.742;15.242;2023-05-09T02:34:51;9.18;;;4.93;;
69334;SDS011;56477;52.742;15.242;2023-05-09T02:37:18;9.90;;;5.28;;
69334;SDS011;56477;52.742;15.242;2023-05-09T02:39:46;10.32;;;4.65;;
69334;SDS011;56477;52.742;15.242;2023-05-09T02:42:12;10.63;;;4.53;;
69334;SDS011;56477;52.742;15.242;2023-05-09T02:44:41;9.18;;;4.20;;
69334;SDS011;56477;52.742;15.242;2023-05-09T02:47:07;10.30;;;4.90;;
69334;SDS011;56477;52.742;15.242;2023-05-09T02:49:33;11.43;;;4.85;;
69334;SDS011;56477;52.742;15.242;2023-05-09T02:51:59;10.07;;;4.47;;
69334;SDS011;56477;52.742;15.242;2023-05-09T02:54:26;10.80;;;5.43;;
69334;SDS011;56477;52.742;15.242;2023-05-09T02:56:52;10.70;;;4.82;;
69334;SDS011;56477;52.742;15.242;2023-05-09T02:59:18;9.70;;;4.82;;
69334;SDS011;56477;52.742;15.242;2023-05-09T03:01:46;10.77;;;4.60;;
69334;SDS011;56477;52.742;15.242;2023-05-09T03:04:12;9.18;;;4.90;;
69334;SDS011;56477;52.742;15.242;2023-05-09T03:06:38;8.75;;;4.18;;
69334;SDS011;56477;52.742;15.242;2023-05-09T03:09:05;8.40;;;4.55;;
69334;SDS011;56477;52.742;15.242;2023-05-09T03:11:31;9.80;;;5.03;;
69334;SDS011;56477;52.742;15.242;2023-05-09T03:13:57;12.30;;;5.13;;
69334;SDS011;56477;52.742;15.242;2023-05-09T03:16:23;10.50;;;5.32;;
69334;SDS011;56477;52.742;15.242;2023-05-09T03:18:49;12.55;;;4.22;;
69334;SDS011;56477;52.742;15.242;2023-05-09T03:21:15;9.20;;;4.43;;
69334;SDS011;56477;52.742;15.242;2023-05-09T03:23:41;7.85;;;3.83;;
69334;SDS011;56477;52.742;15.242;2023-05-09T03:26:07;8.77;;;4.07;;
69334;SDS011;56477;52.742;15.242;2023-05-09T03:28:33;8.00;;;3.97;;
69334;SDS011;56477;52.742;15.242;2023-05-09T03:30:59;9.73;;;4.22;;
69334;SDS011;56477;52.742;15.242;2023-05-09T03:33:25;9.75;;;4.82;;
69334;SDS011;56477;52.742;15.242;2023-05-09T03:35:51;11.33;;;5.23;;
69334;SDS011;56477;52.742;15.242;2023-05-09T03:38:17;10.65;;;5.07;;
69334;SDS011;56477;52.742;15.242;2023-05-09T03:40:43;9.48;;;4.75;;
69334;SDS011;56477;52.742;15.242;2023-05-09T03:43:09;10.63;;;5.13;;
69334;SDS011;56477;52.742;15.242;2023-05-09T03:45:35;10.20;;;5.17;;
69334;SDS011;56477;52.742;15.242;2023-05-09T03:48:05;12.20;;;4.05;;
69334;SDS011;56477;52.742;15.242;2023-05-09T03:50:34;9.45;;;4.50;;
69334;SDS011;56477;52.742;15.242;2023-05-09T03:53:00;12.80;;;4.43;;
69334;SDS011;56477;52.742;15.242;2023-05-09T03:55:27;9.00;;;4.60;;
69334;SDS011;56477;52.742;15.242;2023-05-09T03:57:53;9.75;;;4.75;;
69334;SDS011;56477;52.742;15.242;2023-05-09T04:00:19;10.38;;;4.90;;
69334;SDS011;56477;52.742;15.242;2023-05-09T04:02:49;8.75;;;4.43;;
69334;SDS011;56477;52.742;15.242;2023-05-09T04:05:15;9.18;;;4.30;;
69334;SDS011;56477;52.742;15.242;2023-05-09T04:07:41;9.80;;;5.00;;
69334;SDS011;56477;52.742;15.242;2023-05-09T04:10:07;10.18;;;4.25;;
69334;SDS011;56477;52.742;15.242;2023-05-09T04:12:34;9.52;;;5.43;;
69334;SDS011;56477;52.742;15.242;2023-05-09T04:15:00;8.13;;;3.93;;
69334;SDS011;56477;52.742;15.242;2023-05-09T04:17:26;9.02;;;4.22;;
69334;SDS011;56477;52.742;15.242;2023-05-09T04:19:51;8.40;;;4.05;;
69334;SDS011;56477;52.742;15.242;2023-05-09T04:22:17;11.80;;;4.55;;
69334;SDS011;56477;52.742;15.242;2023-05-09T04:24:43;10.23;;;4.60;;
69334;SDS011;56477;52.742;15.242;2023-05-09T04:27:10;9.85;;;4.85;;
69334;SDS011;56477;52.742;15.242;2023-05-09T04:29:35;11.18;;;5.07;;
69334;SDS011;56477;52.742;15.242;2023-05-09T04:32:03;17.50;;;6.88;;
69334;SDS011;56477;52.742;15.242;2023-05-09T04:34:29;8.57;;;4.10;;
69334;SDS011;56477;52.742;15.242;2023-05-09T04:36:56;10.02;;;4.00;;
69334;SDS011;56477;52.742;15.242;2023-05-09T04:39:22;10.30;;;4.22;;
69334;SDS011;56477;52.742;15.242;2023-05-09T04:41:48;12.05;;;4.55;;
69334;SDS011;56477;52.742;15.242;2023-05-09T04:44:14;8.60;;;4.50;;
69334;SDS011;56477;52.742;15.242;2023-05-09T04:46:41;9.48;;;4.20;;
69334;SDS011;56477;52.742;15.242;2023-05-09T04:49:07;11.18;;;4.82;;
69334;SDS011;56477;52.742;15.242;2023-05-09T04:51:33;12.50;;;4.72;;
69334;SDS011;56477;52.742;15.242;2023-05-09T04:53:59;9.57;;;4.43;;
69334;SDS011;56477;52.742;15.242;2023-05-09T04:56:25;9.63;;;3.97;;
69334;SDS011;56477;52.742;15.242;2023-05-09T04:58:51;9.88;;;4.60;;
69334;SDS011;56477;52.742;15.242;2023-05-09T05:01:17;10.18;;;4.35;;
69334;SDS011;56477;52.742;15.242;2023-05-09T05:03:43;10.23;;;4.37;;
69334;SDS011;56477;52.742;15.242;2023-05-09T05:06:10;9.30;;;4.70;;
69334;SDS011;56477;52.742;15.242;2023-05-09T05:08:36;8.15;;;4.40;;
69334;SDS011;56477;52.742;15.242;2023-05-09T05:11:02;11.18;;;4.53;;
69334;SDS011;56477;52.742;15.242;2023-05-09T05:13:28;9.63;;;4.07;;
69334;SDS011;56477;52.742;15.242;2023-05-09T05:15:54;9.95;;;4.47;;
69334;SDS011;56477;52.742;15.242;2023-05-09T05:18:21;8.75;;;4.03;;
69334;SDS011;56477;52.742;15.242;2023-05-09T05:20:47;9.93;;;4.00;;
69334;SDS011;56477;52.742;15.242;2023-05-09T05:23:12;7.97;;;3.67;;
69334;SDS011;56477;52.742;15.242;2023-05-09T05:25:38;10.27;;;5.00;;
69334;SDS011;56477;52.742;15.242;2023-05-09T05:28:04;10.25;;;4.30;;
69334;SDS011;56477;52.742;15.242;2023-05-09T05:30:31;7.22;;;3.78;;
69334;SDS011;56477;52.742;15.242;2023-05-09T05:32:56;8.67;;;4.07;;
69334;SDS011;56477;52.742;15.242;2023-05-09T05:35:23;9.70;;;4.35;;
69334;SDS011;56477;52.742;15.242;2023-05-09T05:37:49;8.73;;;3.88;;
69334;SDS011;56477;52.742;15.242;2023-05-09T05:40:15;9.68;;;4.18;;
69334;SDS011;56477;52.742;15.242;2023-05-09T05:42:41;11.70;;;6.33;;
69334;SDS011;56477;52.742;15.242;2023-05-09T05:45:09;12.38;;;4.40;;
69334;SDS011;56477;52.742;15.242;2023-05-09T05:47:35;9.23;;;4.57;;
69334;SDS011;56477;52.742;15.242;2023-05-09T05:50:02;9.55;;;4.78;;
69334;SDS011;56477;52.742;15.242;2023-05-09T05:52:31;8.70;;;4.57;;
69334;SDS011;56477;52.742;15.242;2023-05-09T05:54:57;6.90;;;4.32;;
69334;SDS011;56477;52.742;15.242;2023-05-09T05:57:23;13.35;;;6.63;;
69334;SDS011;56477;52.742;15.242;2023-05-09T05:59:49;6.38;;;2.95;;
69334;SDS011;56477;52.742;15.242;2023-05-09T06:02:16;9.90;;;4.10;;
69334;SDS011;56477;52.742;15.242;2023-05-09T06:04:43;10.02;;;4.80;;
69334;SDS011;56477;52.742;15.242;2023-05-09T06:07:11;9.05;;;4.30;;
69334;SDS011;56477;52.742;15.242;2023-05-09T06:09:38;9.07;;;4.30;;
69334;SDS011;56477;52.742;15.242;2023-05-09T06:12:04;7.97;;;4.07;;
69334;SDS011;56477;52.742;15.242;2023-05-09T06:14:31;9.85;;;4.78;;
69334;SDS011;56477;52.742;15.242;2023-05-09T06:16:57;11.15;;;4.80;;
69334;SDS011;56477;52.742;15.242;2023-05-09T06:19:23;10.07;;;5.10;;
69334;SDS011;56477;52.742;15.242;2023-05-09T06:21:49;9.47;;;4.57;;
69334;SDS011;56477;52.742;15.242;2023-05-09T06:24:16;9.18;;;4.45;;
69334;SDS011;56477;52.742;15.242;2023-05-09T06:26:42;9.88;;;4.45;;
69334;SDS011;56477;52.742;15.242;2023-05-09T06:29:08;9.48;;;4.07;;
69334;SDS011;56477;52.742;15.242;2023-05-09T06:31:35;9.03;;;3.93;;
69334;SDS011;56477;52.742;15.242;2023-05-09T06:34:03;8.82;;;3.67;;
69334;SDS011;56477;52.742;15.242;2023-05-09T06:36:29;9.32;;;3.83;;
69334;SDS011;56477;52.742;15.242;2023-05-09T06:38:57;8.10;;;4.05;;
69334;SDS011;56477;52.742;15.242;2023-05-09T06:41:22;9.65;;;3.33;;
69334;SDS011;56477;52.742;15.242;2023-05-09T06:43:49;9.23;;;4.27;;
69334;SDS011;56477;52.742;15.242;2023-05-09T06:46:14;8.18;;;3.58;;
69334;SDS011;56477;52.742;15.242;2023-05-09T06:48:41;7.38;;;3.60;;
69334;SDS011;56477;52.742;15.242;2023-05-09T06:51:06;5.28;;;2.60;;
69334;SDS011;56477;52.742;15.242;2023-05-09T06:53:33;6.40;;;3.10;;
69334;SDS011;56477;52.742;15.242;2023-05-09T06:55:59;6.93;;;2.10;;
69334;SDS011;56477;52.742;15.242;2023-05-09T06:58:25;6.32;;;2.90;;
69334;SDS011;56477;52.742;15.242;2023-05-09T07:00:52;5.03;;;2.33;;
69334;SDS011;56477;52.742;15.242;2023-05-09T07:03:19;5.72;;;3.35;;
69334;SDS011;56477;52.742;15.242;2023-05-09T07:05:45;8.70;;;2.50;;
69334;SDS011;56477;52.742;15.242;2023-05-09T07:08:11;6.10;;;2.35;;
69334;SDS011;56477;52.742;15.242;2023-05-09T07:10:37;6.18;;;2.50;;
69334;SDS011;56477;52.742;15.242;2023-05-09T07:13:03;4.22;;;2.45;;
69334;SDS011;56477;52.742;15.242;2023-05-09T07:15:29;4.63;;;2.30;;
69334;SDS011;56477;52.742;15.242;2023-05-09T07:17:56;3.80;;;2.20;;
69334;SDS011;56477;52.742;15.242;2023-05-09T07:20:21;6.38;;;2.38;;
69334;SDS011;56477;52.742;15.242;2023-05-09T07:22:48;4.30;;;2.15;;
69334;SDS011;56477;52.742;15.242;2023-05-09T07:25:13;5.20;;;2.37;;
69334;SDS011;56477;52.742;15.242;2023-05-09T07:27:40;4.18;;;1.90;;
69334;SDS011;56477;52.742;15.242;2023-05-09T07:30:06;5.05;;;2.13;;
69334;SDS011;56477;52.742;15.242;2023-05-09T07:32:34;5.13;;;2.60;;
69334;SDS011;56477;52.742;15.242;2023-05-09T07:35:00;5.47;;;1.93;;
69334;SDS011;56477;52.742;15.242;2023-05-09T07:37:26;3.92;;;1.85;;
69334;SDS011;56477;52.742;15.242;2023-05-09T07:39:52;5.57;;;2.30;;
69334;SDS011;56477;52.742;15.242;2023-05-09T07:42:18;5.32;;;2.10;;
69334;SDS011;56477;52.742;15.242;2023-05-09T07:44:44;5.20;;;2.00;;
69334;SDS011;56477;52.742;15.242;2023-05-09T07:47:10;3.38;;;1.83;;
69334;SDS011;56477;52.742;15.242;2023-05-09T07:49:36;5.22;;;2.30;;
69334;SDS011;56477;52.742;15.242;2023-05-09T07:52:02;5.97;;;2.28;;
69334;SDS011;56477;52.742;15.242;2023-05-09T07:54:29;4.03;;;2.23;;
69334;SDS011;56477;52.742;15.242;2023-05-09T07:56:55;5.55;;;2.30;;
69334;SDS011;56477;52.742;15.242;2023-05-09T07:59:20;3.58;;;2.42;;
69334;SDS011;56477;52.742;15.242;2023-05-09T08:01:46;7.93;;;2.22;;
69334;SDS011;56477;52.742;15.242;2023-05-09T08:04:13;5.73;;;2.00;;
69334;SDS011;56477;52.742;15.242;2023-05-09T08:06:39;9.85;;;2.70;;
69334;SDS011;56477;52.742;15.242;2023-05-09T08:09:05;4.13;;;1.95;;
69334;SDS011;56477;52.742;15.242;2023-05-09T08:11:34;6.45;;;1.80;;
69334;SDS011;56477;52.742;15.242;2023-05-09T08:14:00;4.53;;;1.90;;
69334;SDS011;56477;52.742;15.242;2023-05-09T08:16:26;4.43;;;2.00;;
69334;SDS011;56477;52.742;15.242;2023-05-09T08:18:52;2.88;;;1.63;;
69334;SDS011;56477;52.742;15.242;2023-05-09T08:21:20;5.65;;;1.92;;
69334;SDS011;56477;52.742;15.242;2023-05-09T08:23:46;3.22;;;1.52;;
69334;SDS011;56477;52.742;15.242;2023-05-09T08:26:12;6.17;;;2.10;;
69334;SDS011;56477;52.742;15.242;2023-05-09T08:28:38;5.30;;;1.90;;
69334;SDS011;56477;52.742;15.242;2023-05-09T08:31:04;4.57;;;1.70;;
69334;SDS011;56477;52.742;15.242;2023-05-09T08:33:30;6.13;;;1.80;;
69334;SDS011;56477;52.742;15.242;2023-05-09T08:35:56;3.38;;;1.75;;
69334;SDS011;56477;52.742;15.242;2023-05-09T08:38:22;4.95;;;1.90;;
69334;SDS011;56477;52.742;15.242;2023-05-09T08:40:49;4.88;;;1.95;;
69334;SDS011;56477;52.742;15.242;2023-05-09T08:43:15;5.20;;;2.27;;
69334;SDS011;56477;52.742;15.242;2023-05-09T08:45:45;4.80;;;1.85;;
69334;SDS011;56477;52.742;15.242;2023-05-09T08:48:14;6.15;;;2.03;;
69334;SDS011;56477;52.742;15.242;2023-05-09T08:50:42;4.40;;;1.55;;
69334;SDS011;56477;52.742;15.242;2023-05-09T08:53:08;4.38;;;1.75;;
69334;SDS011;56477;52.742;15.242;2023-05-09T08:55:35;5.43;;;2.13;;
69334;SDS011;56477;52.742;15.242;2023-05-09T08:58:02;4.57;;;1.90;;
69334;SDS011;56477;52.742;15.242;2023-05-09T09:00:29;4.28;;;1.98;;
69334;SDS011;56477;52.742;15.242;2023-05-09T09:03:00;3.47;;;1.70;;
69334;SDS011;56477;52.742;15.242;2023-05-09T09:05:31;6.63;;;2.17;;
69334;SDS011;56477;52.742;15.242;2023-05-09T09:07:58;8.53;;;1.83;;
69334;SDS011;56477;52.742;15.242;2023-05-09T09:10:25;5.53;;;2.30;;
69334;SDS011;56477;52.742;15.242;2023-05-09T09:12:54;4.25;;;1.65;;
69334;SDS011;56477;52.742;15.242;2023-05-09T09:15:22;6.97;;;1.60;;
69334;SDS011;56477;52.742;15.242;2023-05-09T09:17:53;3.67;;;1.98;;
69334;SDS011;56477;52.742;15.242;2023-05-09T09:20:22;4.57;;;2.20;;
69334;SDS011;56477;52.742;15.242;2023-05-09T09:22:54;3.65;;;1.90;;
69334;SDS011;56477;52.742;15.242;2023-05-09T09:25:25;4.20;;;2.60;;
69334;SDS011;56477;52.742;15.242;2023-05-09T09:27:51;4.82;;;2.10;;
69334;SDS011;56477;52.742;15.242;2023-05-09T09:30:17;6.17;;;2.20;;
69334;SDS011;56477;52.742;15.242;2023-05-09T09:32:43;6.30;;;1.80;;
69334;SDS011;56477;52.742;15.242;2023-05-09T09:35:10;5.57;;;1.75;;
69334;SDS011;56477;52.742;15.242;2023-05-09T09:37:37;4.07;;;2.20;;
69334;SDS011;56477;52.742;15.242;2023-05-09T09:40:08;5.40;;;2.30;;
69334;SDS011;56477;52.742;15.242;2023-05-09T09:42:39;6.77;;;2.00;;
69334;SDS011;56477;52.742;15.242;2023-05-09T09:45:19;4.53;;;1.70;;
69334;SDS011;56477;52.742;15.242;2023-05-09T09:47:46;5.32;;;2.10;;
69334;SDS011;56477;52.742;15.242;2023-05-09T09:50:14;3.28;;;1.80;;
69334;SDS011;56477;52.742;15.242;2023-05-09T09:53:02;10.45;;;2.50;;
69334;SDS011;56477;52.742;15.242;2023-05-09T09:55:28;4.03;;;1.83;;
69334;SDS011;56477;52.742;15.242;2023-05-09T09:57:54;3.58;;;1.55;;
69334;SDS011;56477;52.742;15.242;2023-05-09T10:00:24;3.72;;;1.60;;
69334;SDS011;56477;52.742;15.242;2023-05-09T10:02:58;4.15;;;1.70;;
69334;SDS011;56477;52.742;15.242;2023-05-09T10:05:25;4.90;;;2.20;;
69334;SDS011;56477;52.742;15.242;2023-05-09T10:07:59;3.20;;;1.92;;
69334;SDS011;56477;52.742;15.242;2023-05-09T10:10:31;4.60;;;2.08;;
69334;SDS011;56477;52.742;15.242;2023-05-09T10:13:02;6.82;;;1.90;;
69334;SDS011;56477;52.742;15.242;2023-05-09T10:15:31;4.85;;;1.90;;
69334;SDS011;56477;52.742;15.242;2023-05-09T10:17:57;6.13;;;1.93;;
69334;SDS011;56477;52.742;15.242;2023-05-09T10:20:26;4.65;;;2.28;;
69334;SDS011;56477;52.742;15.242;2023-05-09T10:22:53;8.43;;;2.15;;
69334;SDS011;56477;52.742;15.242;2023-05-09T10:25:26;4.57;;;1.65;;
69334;SDS011;56477;52.742;15.242;2023-05-09T10:27:58;14.32;;;2.63;;
69334;SDS011;56477;52.742;15.242;2023-05-09T10:30:27;5.43;;;1.80;;
69334;SDS011;56477;52.742;15.242;2023-05-09T10:33:07;4.00;;;1.50;;
69334;SDS011;56477;52.742;15.242;2023-05-09T10:35:36;3.90;;;1.75;;
69334;SDS011;56477;52.742;15.242;2023-05-09T10:38:05;4.32;;;1.88;;
69334;SDS011;56477;52.742;15.242;2023-05-09T10:40:33;6.18;;;2.28;;
69334;SDS011;56477;52.742;15.242;2023-05-09T10:42:59;3.30;;;1.97;;
69334;SDS011;56477;52.742;15.242;2023-05-09T10:45:25;5.07;;;2.15;;
69334;SDS011;56477;52.742;15.242;2023-05-09T10:47:51;4.68;;;2.83;;
69334;SDS011;56477;52.742;15.242;2023-05-09T10:50:21;4.57;;;1.75;;
69334;SDS011;56477;52.742;15.242;2023-05-09T11:00:59;5.70;;;2.20;;
69334;SDS011;56477;52.742;15.242;2023-05-09T11:03:26;3.58;;;2.10;;
69334;SDS011;56477;52.742;15.242;2023-05-09T11:05:54;4.40;;;2.20;;
69334;SDS011;56477;52.742;15.242;2023-05-09T11:08:28;5.90;;;2.00;;
69334;SDS011;56477;52.742;15.242;2023-05-09T11:10:56;5.97;;;2.70;;
69334;SDS011;56477;52.742;15.242;2023-05-09T11:13:28;6.18;;;2.38;;
69334;SDS011;56477;52.742;15.242;2023-05-09T11:16:02;4.28;;;2.08;;
69334;SDS011;56477;52.742;15.242;2023-05-09T11:18:30;3.65;;;2.03;;
69334;SDS011;56477;52.742;15.242;2023-05-09T11:20:57;4.43;;;2.30;;
69334;SDS011;56477;52.742;15.242;2023-05-09T11:23:24;4.97;;;2.13;;
69334;SDS011;56477;52.742;15.242;2023-05-09T11:25:52;5.45;;;2.47;;
69334;SDS011;56477;52.742;15.242;2023-05-09T11:28:25;4.13;;;2.42;;
69334;SDS011;56477;52.742;15.242;2023-05-09T11:31:12;3.78;;;2.42;;
69334;SDS011;56477;52.742;15.242;2023-05-09T11:33:40;5.20;;;2.55;;
69334;SDS011;56477;52.742;15.242;2023-05-09T11:36:18;4.07;;;2.00;;
69334;SDS011;56477;52.742;15.242;2023-05-09T11:38:51;8.23;;;2.38;;
69334;SDS011;56477;52.742;15.242;2023-05-09T11:41:25;4.68;;;2.03;;
69334;SDS011;56477;52.742;15.242;2023-05-09T11:43:51;6.45;;;2.35;;
69334;SDS011;56477;52.742;15.242;2023-05-09T11:46:19;5.85;;;2.55;;
69334;SDS011;56477;52.742;15.242;2023-05-09T11:48:45;3.47;;;1.90;;
69334;SDS011;56477;52.742;15.242;2023-05-09T11:51:17;5.28;;;2.22;;
69334;SDS011;56477;52.742;15.242;2023-05-09T11:53:52;4.30;;;2.35;;
69334;SDS011;56477;52.742;15.242;2023-05-09T11:56:18;3.53;;;2.08;;
69334;SDS011;56477;52.742;15.242;2023-05-09T11:58:48;5.05;;;2.60;;
69334;SDS011;56477;52.742;15.242;2023-05-09T12:01:16;4.60;;;2.20;;
69334;SDS011;56477;52.742;15.242;2023-05-09T12:03:43;3.13;;;2.00;;
69334;SDS011;56477;52.742;15.242;2023-05-09T12:06:13;5.35;;;2.15;;
69334;SDS011;56477;52.742;15.242;2023-05-09T12:08:40;5.57;;;2.42;;
69334;SDS011;56477;52.742;15.242;2023-05-09T12:11:08;4.63;;;2.45;;
69334;SDS011;56477;52.742;15.242;2023-05-09T12:13:34;7.40;;;2.43;;
69334;SDS011;56477;52.742;15.242;2023-05-09T12:16:00;7.93;;;2.60;;
69334;SDS011;56477;52.742;15.242;2023-05-09T12:18:26;9.05;;;2.80;;
69334;SDS011;56477;52.742;15.242;2023-05-09T12:20:52;4.93;;;2.05;;
69334;SDS011;56477;52.742;15.242;2023-05-09T12:23:18;4.68;;;2.15;;
69334;SDS011;56477;52.742;15.242;2023-05-09T12:25:50;5.43;;;2.10;;
69334;SDS011;56477;52.742;15.242;2023-05-09T12:28:19;3.90;;;2.10;;
69334;SDS011;56477;52.742;15.242;2023-05-09T12:30:47;6.10;;;2.63;;
69334;SDS011;56477;52.742;15.242;2023-05-09T12:33:13;6.05;;;2.05;;
69334;SDS011;56477;52.742;15.242;2023-05-09T12:35:43;6.35;;;2.55;;
69334;SDS011;56477;52.742;15.242;2023-05-09T12:38:12;4.72;;;2.38;;
69334;SDS011;56477;52.742;15.242;2023-05-09T12:40:40;4.37;;;2.10;;
69334;SDS011;56477;52.742;15.242;2023-05-09T12:43:08;5.10;;;2.83;;
69334;SDS011;56477;52.742;15.242;2023-05-09T12:45:34;4.22;;;2.45;;
69334;SDS011;56477;52.742;15.242;2023-05-09T12:48:03;4.78;;;2.38;;
69334;SDS011;56477;52.742;15.242;2023-05-09T12:50:31;5.13;;;2.40;;
69334;SDS011;56477;52.742;15.242;2023-05-09T12:53:00;3.60;;;2.70;;
69334;SDS011;56477;52.742;15.242;2023-05-09T12:55:27;4.30;;;2.30;;
69334;SDS011;56477;52.742;15.242;2023-05-09T12:58:00;5.72;;;3.20;;
69334;SDS011;56477;52.742;15.242;2023-05-09T13:00:28;5.10;;;2.85;;
69334;SDS011;56477;52.742;15.242;2023-05-09T13:03:05;4.63;;;2.33;;
69334;SDS011;56477;52.742;15.242;2023-05-09T13:05:52;6.15;;;2.47;;
69334;SDS011;56477;52.742;15.242;2023-05-09T13:08:20;5.17;;;2.27;;
69334;SDS011;56477;52.742;15.242;2023-05-09T13:10:46;5.75;;;2.85;;
69334;SDS011;56477;52.742;15.242;2023-05-09T13:13:15;5.72;;;2.83;;
69334;SDS011;56477;52.742;15.242;2023-05-09T13:15:42;3.35;;;2.15;;
69334;SDS011;56477;52.742;15.242;2023-05-09T13:18:09;4.40;;;2.53;;
69334;SDS011;56477;52.742;15.242;2023-05-09T13:20:36;7.83;;;2.57;;
69334;SDS011;56477;52.742;15.242;2023-05-09T13:23:01;5.43;;;2.65;;
69334;SDS011;56477;52.742;15.242;2023-05-09T13:25:28;5.03;;;2.67;;
69334;SDS011;56477;52.742;15.242;2023-05-09T13:27:53;5.53;;;2.45;;
69334;SDS011;56477;52.742;15.242;2023-05-09T13:30:20;5.40;;;2.50;;
69334;SDS011;56477;52.742;15.242;2023-05-09T13:32:45;4.43;;;2.83;;
69334;SDS011;56477;52.742;15.242;2023-05-09T13:35:12;4.35;;;2.60;;
69334;SDS011;56477;52.742;15.242;2023-05-09T13:37:39;4.10;;;2.25;;
69334;SDS011;56477;52.742;15.242;2023-05-09T13:40:05;4.95;;;2.30;;
69334;SDS011;56477;52.742;15.242;2023-05-09T13:42:34;4.97;;;2.27;;
69334;SDS011;56477;52.742;15.242;2023-05-09T13:45:01;5.65;;;2.28;;
69334;SDS011;56477;52.742;15.242;2023-05-09T13:47:27;3.70;;;2.25;;
69334;SDS011;56477;52.742;15.242;2023-05-09T13:49:53;4.07;;;2.03;;
69334;SDS011;56477;52.742;15.242;2023-05-09T13:52:19;7.57;;;2.77;;
69334;SDS011;56477;52.742;15.242;2023-05-09T13:54:45;3.72;;;2.30;;
69334;SDS011;56477;52.742;15.242;2023-05-09T13:57:11;6.72;;;2.70;;
69334;SDS011;56477;52.742;15.242;2023-05-09T13:59:38;3.97;;;2.35;;
69334;SDS011;56477;52.742;15.242;2023-05-09T14:02:06;6.70;;;2.75;;
69334;SDS011;56477;52.742;15.242;2023-05-09T14:04:32;4.27;;;2.40;;
69334;SDS011;56477;52.742;15.242;2023-05-09T14:06:59;3.90;;;1.90;;
69334;SDS011;56477;52.742;15.242;2023-05-09T14:09:26;5.88;;;2.65;;
69334;SDS011;56477;52.742;15.242;2023-05-09T14:11:52;5.00;;;2.40;;
69334;SDS011;56477;52.742;15.242;2023-05-09T14:14:19;4.30;;;2.30;;
69334;SDS011;56477;52.742;15.242;2023-05-09T14:16:46;4.32;;;2.47;;
69334;SDS011;56477;52.742;15.242;2023-05-09T14:19:12;5.43;;;2.40;;
69334;SDS011;56477;52.742;15.242;2023-05-09T14:21:42;5.83;;;2.70;;
69334;SDS011;56477;52.742;15.242;2023-05-09T14:24:09;7.50;;;2.20;;
69334;SDS011;56477;52.742;15.242;2023-05-09T14:26:36;7.53;;;2.60;;
69334;SDS011;56477;52.742;15.242;2023-05-09T14:29:03;4.32;;;1.88;;
69334;SDS011;56477;52.742;15.242;2023-05-09T14:31:29;4.93;;;2.35;;
69334;SDS011;56477;52.742;15.242;2023-05-09T14:33:56;5.03;;;2.30;;
69334;SDS011;56477;52.742;15.242;2023-05-09T14:36:24;5.27;;;1.80;;
69334;SDS011;56477;52.742;15.242;2023-05-09T14:38:52;5.50;;;1.80;;
69334;SDS011;56477;52.742;15.242;2023-05-09T14:41:18;6.35;;;2.30;;
69334;SDS011;56477;52.742;15.242;2023-05-09T14:43:44;4.32;;;1.80;;
69334;SDS011;56477;52.742;15.242;2023-05-09T14:46:10;5.80;;;1.77;;
69334;SDS011;56477;52.742;15.242;2023-05-09T14:48:36;5.03;;;2.17;;
69334;SDS011;56477;52.742;15.242;2023-05-09T14:51:02;4.63;;;2.00;;